createdAt,value
2018-02-25T00:02:13.418Z,6.80
2018-02-25T00:04:48.128Z,6.63
2018-02-25T00:07:22.744Z,6.87
2018-02-25T00:09:57.374Z,6.63
2018-02-25T00:12:32.711Z,7.03
2018-02-25T00:15:06.917Z,6.53
2018-02-25T00:17:40.616Z,6.47
2018-02-25T00:20:15.056Z,6.43
2018-02-25T00:22:49.461Z,6.50
2018-02-25T00:25:24.726Z,6.73
2018-02-25T00:27:58.704Z,6.40
2018-02-25T00:30:33.329Z,7.50
2018-02-25T00:33:07.452Z,6.57
2018-02-25T00:35:41.383Z,6.53
2018-02-25T00:38:16.392Z,6.00
2018-02-25T00:40:50.032Z,5.93
2018-02-25T00:43:24.944Z,7.10
2018-02-25T00:45:59.527Z,6.13
2018-02-25T00:48:33.397Z,6.57
2018-02-25T00:51:08.191Z,7.13
2018-02-25T00:53:42.591Z,6.87
2018-02-25T00:56:17.420Z,6.57
2018-02-25T00:58:51.430Z,6.63
2018-02-25T01:01:28.104Z,6.37
2018-02-25T01:04:02.368Z,6.77
2018-02-25T01:06:37.368Z,6.13
2018-02-25T01:09:11.068Z,6.30
2018-02-25T01:11:45.261Z,6.77
2018-02-25T01:14:19.989Z,7.00
2018-02-25T01:16:54.946Z,6.07
2018-02-25T01:19:28.727Z,6.67
2018-02-25T01:22:02.322Z,6.50
2018-02-25T01:24:37.176Z,6.70
2018-02-25T01:27:11.776Z,6.40
2018-02-25T01:29:46.818Z,6.93
2018-02-25T01:32:20.527Z,5.93
2018-02-25T01:34:56.069Z,7.07
2018-02-25T01:37:30.404Z,6.37
2018-02-25T01:40:05.338Z,6.57
2018-02-25T01:42:39.931Z,6.73
2018-02-25T01:45:15.479Z,6.30
2018-02-25T01:47:50.278Z,7.10
2018-02-25T01:50:24.821Z,7.10
2018-02-25T01:52:59.245Z,7.17
2018-02-25T01:55:33.868Z,6.63
2018-02-25T01:58:08.005Z,6.87
2018-02-25T02:00:42.606Z,7.07
2018-02-25T02:03:17.536Z,6.77
2018-02-25T02:05:52.261Z,6.73
2018-02-25T02:08:26.381Z,6.73
2018-02-25T02:11:01.611Z,7.07
2018-02-25T02:13:36.034Z,6.90
2018-02-25T02:16:10.765Z,6.33
2018-02-25T02:18:46.506Z,6.07
2018-02-25T02:21:21.155Z,6.83
2018-02-25T02:23:55.657Z,6.57
2018-02-25T02:26:29.563Z,7.33
2018-02-25T02:29:04.592Z,6.47
2018-02-25T02:31:39.332Z,6.87
2018-02-25T02:34:14.046Z,6.97
2018-02-25T02:36:48.054Z,6.87
2018-02-25T02:39:23.710Z,6.67
2018-02-25T02:41:57.898Z,7.17
2018-02-25T02:44:31.622Z,6.73
2018-02-25T02:47:07.283Z,6.60
2018-02-25T02:49:41.795Z,7.00
2018-02-25T02:52:15.904Z,6.20
2018-02-25T02:54:50.339Z,6.93
2018-02-25T02:57:24.660Z,6.63
2018-02-25T02:59:59.466Z,6.77
2018-02-25T03:02:34.524Z,6.37
2018-02-25T03:05:09.560Z,7.27
2018-02-25T03:07:43.532Z,7.47
2018-02-25T03:10:18.060Z,7.37
2018-02-25T03:12:54.050Z,7.07
2018-02-25T03:15:27.923Z,7.47
2018-02-25T03:18:01.635Z,7.13
2018-02-25T03:20:36.272Z,7.33
2018-02-25T03:23:10.980Z,7.80
2018-02-25T03:25:46.933Z,8.03
2018-02-25T03:28:21.363Z,7.43
2018-02-25T03:30:55.732Z,7.63
2018-02-25T03:33:30.852Z,7.43
2018-02-25T03:36:04.851Z,7.60
2018-02-25T03:38:40.256Z,7.47
2018-02-25T03:54:22.345Z,8.80
2018-02-25T03:56:57.702Z,8.13
2018-02-25T03:59:32.016Z,7.47
2018-02-25T04:02:06.417Z,8.23
2018-02-25T04:04:41.762Z,8.27
2018-02-25T04:07:16.396Z,7.27
2018-02-25T04:09:51.129Z,8.40
2018-02-25T04:12:25.826Z,8.90
2018-02-25T04:14:59.540Z,8.10
2018-02-25T04:17:34.263Z,9.00
2018-02-25T04:20:07.835Z,9.50
2018-02-25T04:22:43.022Z,9.13
2018-02-25T04:25:16.717Z,9.20
2018-02-25T04:27:51.956Z,8.23
2018-02-25T04:30:25.843Z,8.57
2018-02-25T04:33:02.011Z,8.33
2018-02-25T04:35:36.837Z,8.87
2018-02-25T04:38:10.964Z,8.63
2018-02-25T04:40:45.496Z,9.10
2018-02-25T04:43:20.314Z,9.03
2018-02-25T04:45:54.203Z,10.03
2018-02-25T04:48:28.928Z,9.80
2018-02-25T04:51:04.065Z,9.03
2018-02-25T04:53:39.007Z,9.13
2018-02-25T04:56:12.743Z,9.80
2018-02-25T04:58:47.117Z,9.87
2018-02-25T05:01:21.675Z,9.30
2018-02-25T05:03:55.475Z,9.70
2018-02-25T05:06:29.356Z,9.80
2018-02-25T05:09:03.366Z,9.20
2018-02-25T05:11:37.232Z,9.63
2018-02-25T05:14:12.095Z,7.10
2018-02-25T05:16:46.536Z,9.20
2018-02-25T05:19:21.132Z,10.30
2018-02-25T05:21:55.559Z,9.80
2018-02-25T05:24:29.362Z,9.43
2018-02-25T05:27:03.887Z,10.43
2018-02-25T05:29:37.686Z,7.03
2018-02-25T05:32:12.514Z,9.90
2018-02-25T05:34:47.242Z,9.60
2018-02-25T05:37:22.475Z,9.93
2018-02-25T05:39:56.176Z,9.93
2018-02-25T05:42:30.808Z,8.23
2018-02-25T05:45:05.455Z,10.53
2018-02-25T05:47:39.733Z,10.80
2018-02-25T05:50:14.168Z,10.70
2018-02-25T05:52:49.098Z,9.73
2018-02-25T05:55:23.615Z,10.67
2018-02-25T05:57:57.524Z,10.70
2018-02-25T06:00:32.364Z,10.50
2018-02-25T06:03:07.265Z,10.23
2018-02-25T06:05:42.104Z,10.67
2018-02-25T06:08:16.540Z,10.37
2018-02-25T06:10:50.756Z,10.50
2018-02-25T06:13:24.964Z,10.90
2018-02-25T06:15:59.760Z,10.93
2018-02-25T06:18:36.983Z,11.17
2018-02-25T06:21:11.245Z,9.60
2018-02-25T06:23:45.093Z,10.03
2018-02-25T06:26:19.104Z,10.47
2018-02-25T06:28:52.957Z,9.90
2018-02-25T06:31:27.436Z,10.10
2018-02-25T06:34:01.547Z,10.90
2018-02-25T06:36:36.167Z,11.17
2018-02-25T06:39:10.289Z,11.03
2018-02-25T06:41:44.896Z,11.37
2018-02-25T06:44:19.048Z,10.73
2018-02-25T06:46:53.764Z,10.97
2018-02-25T06:49:28.363Z,10.40
2018-02-25T06:52:03.121Z,10.90
2018-02-25T06:54:36.999Z,10.00
2018-02-25T06:57:12.033Z,10.83
2018-02-25T06:59:45.758Z,10.87
2018-02-25T07:02:19.438Z,11.17
2018-02-25T07:04:54.266Z,10.50
2018-02-25T07:07:28.784Z,10.30
2018-02-25T07:10:03.307Z,10.73
2018-02-25T07:12:37.138Z,9.70
2018-02-25T07:15:11.432Z,10.47
2018-02-25T07:17:45.239Z,10.73
2018-02-25T07:20:19.139Z,11.10
2018-02-25T07:22:53.219Z,9.57
2018-02-25T07:25:26.854Z,9.80
2018-02-25T07:28:01.993Z,10.20
2018-02-25T07:30:35.688Z,10.27
2018-02-25T07:33:10.524Z,10.33
2018-02-25T07:35:45.153Z,9.57
2018-02-25T07:38:19.120Z,9.50
2018-02-25T07:40:53.693Z,9.20
2018-02-25T07:43:28.407Z,9.97
2018-02-25T07:46:02.919Z,9.70
2018-02-25T07:48:37.627Z,8.77
2018-02-25T07:51:12.996Z,8.43
2018-02-25T07:53:47.741Z,8.93
2018-02-25T07:56:22.482Z,9.80
2018-02-25T07:58:56.176Z,8.63
2018-02-25T08:01:30.469Z,8.67
2018-02-25T08:04:04.475Z,9.20
2018-02-25T08:06:38.091Z,9.90
2018-02-25T08:09:12.179Z,9.17
2018-02-25T08:11:46.191Z,9.13
2018-02-25T08:14:21.424Z,9.43
2018-02-25T08:16:55.863Z,8.77
2018-02-25T08:19:30.804Z,8.97
2018-02-25T08:22:04.808Z,9.03
2018-02-25T08:24:39.632Z,9.90
2018-02-25T08:27:14.049Z,8.90
2018-02-25T08:29:48.060Z,9.03
2018-02-25T08:32:23.181Z,8.90
2018-02-25T08:34:57.004Z,9.40
2018-02-25T08:37:32.053Z,8.67
2018-02-25T08:40:06.641Z,9.50
2018-02-25T08:42:41.687Z,8.63
2018-02-25T08:45:15.402Z,9.03
2018-02-25T08:47:50.327Z,8.63
2018-02-25T08:50:24.934Z,9.33
2018-02-25T08:52:58.751Z,8.43
2018-02-25T08:55:33.592Z,9.37
2018-02-25T08:58:07.370Z,9.07
2018-02-25T09:00:41.671Z,8.57
2018-02-25T09:03:16.328Z,8.37
2018-02-25T09:05:51.246Z,8.40
2018-02-25T09:08:25.249Z,7.63
2018-02-25T09:11:00.823Z,8.13
2018-02-25T09:13:34.996Z,8.83
2018-02-25T09:16:09.282Z,7.93
2018-02-25T09:18:43.441Z,7.67
2018-02-25T09:21:17.148Z,8.20
2018-02-25T09:23:52.276Z,8.27
2018-02-25T09:26:26.187Z,6.80
2018-02-25T09:29:01.435Z,7.30
2018-02-25T09:31:35.530Z,7.50
2018-02-25T09:34:09.471Z,6.90
2018-02-25T09:36:44.274Z,7.53
2018-02-25T09:39:19.139Z,7.40
2018-02-25T09:41:53.950Z,7.50
2018-02-25T09:44:27.944Z,6.83
2018-02-25T09:47:03.208Z,6.70
2018-02-25T09:49:37.001Z,5.30
2018-02-25T09:52:11.301Z,6.80
2018-02-25T09:54:45.003Z,4.27
2018-02-25T09:57:20.892Z,7.20
2018-02-25T09:59:55.719Z,6.63
2018-02-25T10:02:30.118Z,5.90
2018-02-25T10:05:05.037Z,6.93
2018-02-25T10:07:38.972Z,6.97
2018-02-25T10:10:12.944Z,6.60
2018-02-25T10:12:47.695Z,7.20
2018-02-25T10:15:22.347Z,6.80
2018-02-25T10:17:56.942Z,5.47
2018-02-25T10:20:31.969Z,7.17
2018-02-25T10:23:05.969Z,6.57
2018-02-25T10:25:39.990Z,6.63
2018-02-25T10:28:14.709Z,6.43
2018-02-25T10:30:49.652Z,7.10
2018-02-25T10:33:24.152Z,6.60
2018-02-25T10:36:01.039Z,6.23
2018-02-25T10:38:35.949Z,5.87
2018-02-25T10:41:10.500Z,5.87
2018-02-25T10:43:44.900Z,6.80
2018-02-25T10:46:18.712Z,7.47
2018-02-25T10:48:53.343Z,6.90
2018-02-25T10:51:27.864Z,7.43
2018-02-25T10:54:01.681Z,6.83
2018-02-25T10:56:35.406Z,6.30
2018-02-25T10:59:10.753Z,7.20
2018-02-25T11:01:45.467Z,6.60
2018-02-25T11:04:20.260Z,6.60
2018-02-25T11:06:54.279Z,6.97
2018-02-25T11:09:28.083Z,6.27
2018-02-25T11:12:02.693Z,5.30
2018-02-25T11:14:37.292Z,7.00
2018-02-25T11:17:12.148Z,7.00
2018-02-25T11:19:45.944Z,6.43
2018-02-25T11:22:20.570Z,7.07
2018-02-25T11:24:54.576Z,6.67
2018-02-25T11:27:28.369Z,7.30
2018-02-25T11:30:03.115Z,7.40
2018-02-25T11:32:38.001Z,7.47
2018-02-25T11:35:11.952Z,6.87
2018-02-25T11:37:46.484Z,7.23
2018-02-25T11:40:20.483Z,7.50
2018-02-25T11:42:55.197Z,6.70
2018-02-25T11:45:30.639Z,8.07
2018-02-25T11:48:04.456Z,7.27
2018-02-25T11:50:39.006Z,7.73
2018-02-25T11:53:14.228Z,7.60
2018-02-25T11:55:50.683Z,7.80
2018-02-25T11:58:25.917Z,6.87
2018-02-25T12:01:03.968Z,6.77
2018-02-25T12:03:38.749Z,7.07
2018-02-25T12:06:13.370Z,7.30
2018-02-25T12:08:47.683Z,7.50
2018-02-25T12:11:23.423Z,6.90
2018-02-25T12:13:57.356Z,6.73
2018-02-25T12:16:33.086Z,7.40
2018-02-25T12:19:06.892Z,7.77
2018-02-25T12:21:40.612Z,6.73
2018-02-25T12:24:14.527Z,6.40
2018-02-25T12:26:50.683Z,6.63
2018-02-25T12:29:24.589Z,6.83
2018-02-25T12:31:58.596Z,7.20
2018-02-25T12:34:33.023Z,6.60
2018-02-25T12:37:09.396Z,6.60
2018-02-25T12:39:44.300Z,6.93
2018-02-25T12:42:20.276Z,7.10
2018-02-25T12:44:55.898Z,7.20
2018-02-25T12:47:32.565Z,6.50
2018-02-25T12:50:06.968Z,6.57
2018-02-25T12:52:41.559Z,7.10
2018-02-25T12:55:15.300Z,6.67
2018-02-25T12:57:49.195Z,6.60
2018-02-25T13:00:23.311Z,7.30
2018-02-25T13:02:58.199Z,7.13
2018-02-25T13:05:33.087Z,7.10
2018-02-25T13:08:07.698Z,6.70
2018-02-25T13:10:42.486Z,6.87
2018-02-25T13:13:17.539Z,6.30
2018-02-25T13:15:52.496Z,7.10
2018-02-25T13:18:26.657Z,7.30
2018-02-25T13:21:02.146Z,6.37
2018-02-25T13:23:36.464Z,6.20
2018-02-25T13:26:11.408Z,6.43
2018-02-25T13:28:46.017Z,5.83
2018-02-25T13:31:20.479Z,6.53
2018-02-25T13:33:54.768Z,6.20
2018-02-25T13:36:28.441Z,6.00
2018-02-25T13:39:03.398Z,5.87
2018-02-25T13:41:37.906Z,6.53
2018-02-25T13:44:11.830Z,5.53
2018-02-25T13:46:46.542Z,6.13
2018-02-25T13:49:21.171Z,5.53
2018-02-25T13:51:55.294Z,5.30
2018-02-25T13:54:30.828Z,5.37
2018-02-25T13:57:05.370Z,6.27
2018-02-25T13:59:40.386Z,6.10
2018-02-25T14:02:14.504Z,6.00
2018-02-25T14:04:49.223Z,6.20
2018-02-25T14:07:23.224Z,6.10
2018-02-25T14:09:57.210Z,6.50
2018-02-25T14:12:32.117Z,6.00
2018-02-25T14:15:05.952Z,6.30
2018-02-25T14:17:39.989Z,5.97
2018-02-25T14:20:14.209Z,5.90
2018-02-25T14:22:49.037Z,5.90
2018-02-25T14:25:24.356Z,6.27
2018-02-25T14:27:59.305Z,6.57
2018-02-25T14:30:33.292Z,5.63
2018-02-25T14:33:07.735Z,5.83
2018-02-25T14:35:42.652Z,5.57
2018-02-25T14:38:16.558Z,5.90
2018-02-25T14:40:51.057Z,5.53
2018-02-25T14:43:24.879Z,5.33
2018-02-25T14:46:00.237Z,5.50
2018-02-25T14:48:34.112Z,5.13
2018-02-25T14:51:08.855Z,5.10
2018-02-25T14:53:43.015Z,4.97
2018-02-25T14:56:17.484Z,5.90
2018-02-25T14:58:52.916Z,6.10
2018-02-25T15:01:28.674Z,5.47
2018-02-25T15:04:03.599Z,5.03
2018-02-25T15:06:38.336Z,5.30
2018-02-25T15:09:12.982Z,5.13
2018-02-25T15:11:47.769Z,5.60
2018-02-25T15:14:22.499Z,5.30
2018-02-25T15:16:56.124Z,5.27
2018-02-25T15:19:31.267Z,5.10
2018-02-25T15:22:05.248Z,5.10
2018-02-25T15:24:39.039Z,4.80
2018-02-25T15:27:13.887Z,4.70
2018-02-25T15:29:48.739Z,4.60
2018-02-25T15:32:23.323Z,4.40
2018-02-25T15:34:57.038Z,4.90
2018-02-25T15:37:31.943Z,5.10
2018-02-25T15:40:06.688Z,4.97
2018-02-25T15:42:41.640Z,4.33
2018-02-25T15:45:15.817Z,5.07
2018-02-25T15:47:50.173Z,4.90
2018-02-25T15:50:25.014Z,5.07
2018-02-25T15:52:59.815Z,4.77
2018-02-25T15:55:34.132Z,5.00
2018-02-25T15:58:08.980Z,5.17
2018-02-25T16:00:44.195Z,4.50
2018-02-25T16:03:20.764Z,5.00
2018-02-25T16:05:55.584Z,4.80
2018-02-25T16:08:30.620Z,4.70
2018-02-25T16:11:05.855Z,4.83
2018-02-25T16:13:40.089Z,4.63
2018-02-25T16:16:13.977Z,5.30
2018-02-25T16:18:48.194Z,4.63
2018-02-25T16:21:23.030Z,5.03
2018-02-25T16:23:57.880Z,5.17
2018-02-25T16:26:32.676Z,4.83
2018-02-25T16:29:06.544Z,5.30
2018-02-25T16:31:41.499Z,5.07
2018-02-25T16:34:15.336Z,5.27
2018-02-25T16:36:49.344Z,4.90
2018-02-25T16:39:23.656Z,4.63
2018-02-25T16:41:57.569Z,4.67
2018-02-25T16:44:32.715Z,5.53
2018-02-25T16:47:07.943Z,4.70
2018-02-25T16:49:42.352Z,5.20
2018-02-25T16:52:16.978Z,5.10
2018-02-25T16:54:51.489Z,5.30
2018-02-25T16:57:25.286Z,5.37
2018-02-25T16:59:59.897Z,5.57
2018-02-25T17:02:34.249Z,5.37
2018-02-25T17:05:08.348Z,5.63
2018-02-25T17:07:42.461Z,5.70
2018-02-25T17:10:16.367Z,5.43
2018-02-25T17:12:51.305Z,5.77
2018-02-25T17:15:25.574Z,5.03
2018-02-25T17:18:00.543Z,4.97
2018-02-25T17:20:35.360Z,5.27
2018-02-25T17:23:09.599Z,5.07
2018-02-25T17:25:43.541Z,5.10
2018-02-25T17:28:17.508Z,5.53
2018-02-25T17:30:52.479Z,5.37
2018-02-25T17:33:26.585Z,5.23
2018-02-25T17:36:00.555Z,5.87
2018-02-25T17:38:35.068Z,6.10
2018-02-25T17:41:10.508Z,5.37
2018-02-25T17:43:44.321Z,5.77
2018-02-25T17:46:18.350Z,5.83
2018-02-25T17:48:53.174Z,6.17
2018-02-25T17:51:26.938Z,5.40
2018-02-25T17:54:01.808Z,5.53
2018-02-25T17:56:36.522Z,5.00
2018-02-25T17:59:11.555Z,6.00
2018-02-25T18:01:46.276Z,6.17
2018-02-25T18:04:20.638Z,6.10
2018-02-25T18:06:55.204Z,5.63
2018-02-25T18:09:29.020Z,6.13
2018-02-25T18:12:02.948Z,5.47
2018-02-25T18:14:36.766Z,6.07
2018-02-25T18:17:13.817Z,5.93
2018-02-25T18:19:47.949Z,5.77
2018-02-25T18:22:22.707Z,6.20
2018-02-25T18:24:57.729Z,5.60
2018-02-25T18:27:32.523Z,5.53
2018-02-25T18:30:07.241Z,5.60
2018-02-25T18:32:44.412Z,6.47
2018-02-25T18:35:18.960Z,6.27
2018-02-25T18:37:52.906Z,5.50
2018-02-25T18:40:27.613Z,6.03
2018-02-25T18:43:03.214Z,5.60
2018-02-25T18:45:37.198Z,5.67
2018-02-25T18:48:15.028Z,5.33
2018-02-25T18:50:51.684Z,5.60
2018-02-25T18:53:26.847Z,5.10
2018-02-25T18:56:01.452Z,5.47
2018-02-25T18:58:37.268Z,5.17
2018-02-25T19:01:12.358Z,5.13
2018-02-25T19:03:47.003Z,5.07
2018-02-25T19:06:22.116Z,5.67
2018-02-25T19:08:57.667Z,4.67
2018-02-25T19:11:31.463Z,4.90
2018-02-25T19:14:06.602Z,5.47
2018-02-25T19:16:41.348Z,5.30
2018-02-25T19:19:15.346Z,5.17
2018-02-25T19:21:50.283Z,5.57
2018-02-25T19:24:25.187Z,5.33
2018-02-25T19:27:00.360Z,5.03
2018-02-25T19:29:37.126Z,5.27
2018-02-25T19:32:12.452Z,5.13
2018-02-25T19:34:47.275Z,4.87
2018-02-25T19:37:27.644Z,5.10
2018-02-25T19:40:02.982Z,4.77
2018-02-25T19:42:37.106Z,5.23
2018-02-25T19:45:11.819Z,4.67
2018-02-25T19:47:47.065Z,5.00
2018-02-25T19:50:21.881Z,5.27
2018-02-25T19:52:55.581Z,5.00
2018-02-25T19:55:29.648Z,5.83
2018-02-25T19:58:05.764Z,5.43
2018-02-25T20:00:40.405Z,4.77
2018-02-25T20:03:14.386Z,5.10
2018-02-25T20:05:48.528Z,5.37
2018-02-25T20:08:23.756Z,5.57
2018-02-25T20:10:57.640Z,5.50
2018-02-25T20:13:31.571Z,5.07
2018-02-25T20:29:13.736Z,6.53
2018-02-25T20:31:48.684Z,6.57
2018-02-25T20:34:23.186Z,6.77
2018-02-25T20:36:57.739Z,6.10
2018-02-25T20:39:31.711Z,6.43
2018-02-25T20:42:07.974Z,7.20
2018-02-25T20:44:42.628Z,6.67
2018-02-25T20:47:16.739Z,6.77
2018-02-25T20:49:50.683Z,7.60
2018-02-25T20:52:24.422Z,7.37
2018-02-25T20:54:59.288Z,7.47
2018-02-25T20:57:34.080Z,6.93
2018-02-25T21:00:08.829Z,7.30
2018-02-25T21:02:43.238Z,6.60
2018-02-25T21:05:17.129Z,6.63
2018-02-25T21:07:53.021Z,6.30
2018-02-25T21:10:28.224Z,5.77
2018-02-25T21:13:03.104Z,5.73
2018-02-25T21:15:37.059Z,5.63
2018-02-25T21:18:11.320Z,6.00
2018-02-25T21:20:45.214Z,6.37
2018-02-25T21:23:19.919Z,5.77
2018-02-25T21:25:55.406Z,6.23
2018-02-25T21:28:30.395Z,6.63
2018-02-25T21:31:04.201Z,6.07
2018-02-25T21:33:39.155Z,6.30
2018-02-25T21:36:14.476Z,6.23
2018-02-25T21:38:48.474Z,5.77
2018-02-25T21:41:23.071Z,6.03
2018-02-25T21:43:57.061Z,6.10
2018-02-25T21:46:31.299Z,5.97
2018-02-25T21:49:05.766Z,5.87
2018-02-25T21:51:40.588Z,6.07
2018-02-25T21:54:20.199Z,5.30
2018-02-25T21:57:00.363Z,5.20
2018-02-25T21:59:39.785Z,5.13
2018-02-25T22:02:20.384Z,4.30
2018-02-25T22:04:54.412Z,5.27
2018-02-25T22:07:28.707Z,5.30
2018-02-25T22:10:03.224Z,4.73
2018-02-25T22:12:37.016Z,5.00
2018-02-25T22:15:11.227Z,4.87
2018-02-25T22:17:45.765Z,5.63
2018-02-25T22:20:19.676Z,4.83
2018-02-25T22:22:54.184Z,4.77
2018-02-25T22:25:28.793Z,5.13
2018-02-25T22:28:04.340Z,5.73
2018-02-25T22:30:39.290Z,6.07
2018-02-25T22:33:14.243Z,5.63
2018-02-25T22:35:48.952Z,5.13
2018-02-25T22:38:22.666Z,4.90
2018-02-25T22:41:00.443Z,5.17
2018-02-25T22:43:35.261Z,5.67
2018-02-25T22:46:10.827Z,5.47
2018-02-25T22:48:45.379Z,5.53
2018-02-25T22:51:20.814Z,5.57
2018-02-25T22:53:55.507Z,5.67
2018-02-25T22:56:30.342Z,5.80
2018-02-25T22:59:04.664Z,5.57
2018-02-25T23:01:40.420Z,5.03
2018-02-25T23:04:14.643Z,4.10
2018-02-25T23:06:48.627Z,5.47
2018-02-25T23:09:23.681Z,5.47
2018-02-25T23:11:58.115Z,5.73
2018-02-25T23:14:32.057Z,5.70
2018-02-25T23:17:05.897Z,6.00
2018-02-25T23:19:41.232Z,5.40
2018-02-25T23:22:15.780Z,5.93
2018-02-25T23:24:50.701Z,5.60
2018-02-25T23:27:25.207Z,5.33
2018-02-25T23:29:59.238Z,5.60
2018-02-25T23:32:34.368Z,5.50
2018-02-25T23:35:07.972Z,5.53
2018-02-25T23:37:42.161Z,5.43
2018-02-25T23:40:16.563Z,6.27
2018-02-25T23:42:52.253Z,5.90
2018-02-25T23:45:26.435Z,5.83
2018-02-25T23:48:02.208Z,5.70
2018-02-25T23:50:36.840Z,6.10
2018-02-25T23:53:11.022Z,5.40
2018-02-25T23:55:44.838Z,5.37
2018-02-25T23:58:19.364Z,5.43
